Terminal Aerodrome Forecast
Issued by NWS

Home | Current Version | Previous Version | Text Only | Print | Product List | Glossary On
Versions: 1 2 3 4 5 6 7 8 9 10 11 12 13 14
253
FTUS43 KBIS 221003 AAA
TAFJMS
TAF AMD
KJMS 221003Z 2210/2306 16005KT P6SM SCT140
      TEMPO 2210/2214 4SM BR
     FM221400 17005KT P6SM SCT250
     FM230000 14008KT P6SM SCT250
     FM230400 11007KT P6SM SCT250=

USA.gov is the U.S. government's official web portal to all federal, state and local government web resources and services.